Time;durP1;ratioP1;P1;durP2;ratioP2;P2;SDS_P1;SDS_P2;PMS_P1;PMS_P2;Temp;Humidity;BMP_temperature;BMP_pressure;BME280_temperature;BME280_humidity;BME280_pressure;Samples;Min_cycle;Max_cycle;Signal;HPM_P1;HPM_P2
2021/07/28 00:01:17;;;;;;;13.40;8.23;;;15.00;99.90;;;;;;4986232;28;20048;-62
2021/07/28 00:03:42;;;;;;;18.45;9.55;;;15.00;99.90;;;;;;5008852;28;20113;-64
2021/07/28 00:06:08;;;;;;;14.63;9.00;;;15.10;99.90;;;;;;5009686;28;20583;-64
2021/07/28 00:08:33;;;;;;;12.88;10.07;;;15.10;99.90;;;;;;5009385;28;20034;-64
2021/07/28 00:10:59;;;;;;;15.95;8.48;;;15.20;99.90;;;;;;5009028;28;20061;-64
2021/07/28 00:13:25;;;;;;;11.38;8.43;;;15.30;99.90;;;;;;5006954;28;20103;-63
2021/07/28 00:15:52;;;;;;;10.20;7.97;;;15.30;99.90;;;;;;5005239;28;20527;-62
2021/07/28 00:18:34;;;;;;;14.95;8.43;;;15.40;99.90;;;;;;5002696;28;20717;-61
2021/07/28 00:23:43;;;;;;;11.50;7.70;;;15.50;99.90;;;;;;5008888;28;20040;-64
2021/07/28 00:26:12;;;;;;;17.55;8.30;;;15.50;99.90;;;;;;5005884;28;20029;-63
2021/07/28 00:28:38;;;;;;;13.55;7.68;;;15.50;99.90;;;;;;5000273;28;20026;-64
2021/07/28 00:31:03;;;;;;;9.55;7.18;;;15.50;99.90;;;;;;5005531;28;20400;-64
2021/07/28 00:33:29;;;;;;;10.52;7.72;;;15.50;99.90;;;;;;5008665;28;20749;-64
2021/07/28 00:35:54;;;;;;;8.95;6.97;;;15.50;99.90;;;;;;5008928;28;20037;-65
2021/07/28 00:38:20;;;;;;;15.10;8.52;;;15.60;99.90;;;;;;5005120;28;20036;-63
2021/07/28 00:40:46;;;;;;;11.00;8.23;;;15.60;99.90;;;;;;5007439;28;20038;-63
2021/07/28 00:43:13;;;;;;;13.88;7.55;;;15.70;99.90;;;;;;5000852;28;20037;-60
2021/07/28 00:45:40;;;;;;;11.00;7.47;;;15.60;99.90;;;;;;5000674;28;20037;-64
2021/07/28 00:48:07;;;;;;;14.05;7.60;;;15.60;99.90;;;;;;5006677;28;20522;-63
2021/07/28 00:50:34;;;;;;;9.73;7.03;;;15.60;99.90;;;;;;5007492;28;20124;-63
2021/07/28 00:53:01;;;;;;;10.75;7.65;;;15.60;99.90;;;;;;5006263;28;20065;-64
2021/07/28 00:55:29;;;;;;;10.80;8.50;;;15.60;99.90;;;;;;5008339;28;20475;-62
2021/07/28 00:57:55;;;;;;;10.60;7.50;;;15.60;99.90;;;;;;5008867;28;20126;-63
2021/07/28 01:00:21;;;;;;;14.40;7.05;;;15.70;99.90;;;;;;4992556;28;20491;-62
2021/07/28 01:02:46;;;;;;;13.93;7.68;;;15.70;99.90;;;;;;5003945;28;20025;-63
2021/07/28 01:05:12;;;;;;;11.93;6.40;;;15.70;99.90;;;;;;5007733;28;20068;-64
2021/07/28 01:07:38;;;;;;;14.48;6.70;;;15.70;99.90;;;;;;5006470;28;20037;-61
2021/07/28 01:10:04;;;;;;;14.73;7.25;;;15.70;99.90;;;;;;5009458;28;20022;-63
2021/07/28 01:12:31;;;;;;;9.55;7.65;;;15.70;99.90;;;;;;5003863;28;20026;-60
2021/07/28 01:14:56;;;;;;;10.40;6.70;;;15.70;99.90;;;;;;5004582;28;20029;-63
2021/07/28 01:17:22;;;;;;;14.30;8.00;;;15.70;99.90;;;;;;5005007;28;20033;-62
2021/07/28 01:19:56;;;;;;;12.32;6.95;;;15.70;99.90;;;;;;5007699;28;20508;-63
2021/07/28 01:22:22;;;;;;;11.75;7.18;;;15.70;99.90;;;;;;5000926;28;20018;-64
2021/07/28 01:24:47;;;;;;;14.23;7.43;;;15.70;99.90;;;;;;5006770;28;20030;-63
2021/07/28 01:27:15;;;;;;;11.48;7.15;;;15.70;99.90;;;;;;5003467;28;20100;-63
2021/07/28 01:29:40;;;;;;;10.35;6.93;;;15.70;99.90;;;;;;5002866;28;20022;-62
2021/07/28 01:32:06;;;;;;;13.93;8.00;;;15.70;99.90;;;;;;5009475;28;20041;-63
2021/07/28 01:34:33;;;;;;;9.98;6.72;;;15.70;99.90;;;;;;5004821;28;20030;-64
2021/07/28 01:37:00;;;;;;;13.00;7.88;;;15.70;99.90;;;;;;5006278;28;20038;-63
2021/07/28 01:39:26;;;;;;;13.25;8.07;;;15.70;99.90;;;;;;5005227;28;20022;-62
2021/07/28 01:42:01;;;;;;;9.27;7.53;;;15.80;99.90;;;;;;5008278;28;20033;-62
2021/07/28 01:44:27;;;;;;;11.23;7.30;;;15.80;99.90;;;;;;5004370;28;20092;-63
2021/07/28 01:46:53;;;;;;;11.20;7.72;;;15.80;99.90;;;;;;5008896;28;20034;-62
2021/07/28 01:49:19;;;;;;;11.55;7.60;;;15.80;99.90;;;;;;5008115;28;20044;-64
2021/07/28 01:51:44;;;;;;;12.93;8.10;;;15.80;99.90;;;;;;5007789;28;20058;-63
2021/07/28 01:54:10;;;;;;;10.32;8.10;;;15.80;99.90;;;;;;5004739;28;20058;-64
2021/07/28 01:56:42;;;;;;;14.63;7.97;;;15.80;99.90;;;;;;5007618;28;20038;-64
2021/07/28 01:59:09;;;;;;;11.50;7.00;;;15.80;99.90;;;;;;5002836;28;20180;-63
2021/07/28 02:01:34;;;;;;;10.23;7.72;;;15.90;99.90;;;;;;4988871;28;20042;-63
2021/07/28 02:04:00;;;;;;;12.90;8.50;;;15.80;99.90;;;;;;5002207;28;20664;-64
2021/07/28 02:06:25;;;;;;;11.70;8.75;;;15.80;99.90;;;;;;5007381;28;20290;-63
2021/07/28 02:08:51;;;;;;;15.07;8.40;;;15.80;99.90;;;;;;5005804;28;20034;-64
2021/07/28 02:11:16;;;;;;;19.65;8.95;;;15.80;99.90;;;;;;5000952;28;20037;-63
2021/07/28 02:13:42;;;;;;;12.27;8.82;;;15.80;99.90;;;;;;5008729;28;20060;-63
2021/07/28 02:16:07;;;;;;;19.48;9.00;;;15.80;99.90;;;;;;5000832;28;20112;-64
2021/07/28 02:18:33;;;;;;;14.88;9.65;;;15.90;99.90;;;;;;5006520;28;20117;-62
2021/07/28 02:21:01;;;;;;;12.98;8.48;;;15.90;99.90;;;;;;5005701;28;20054;-62
2021/07/28 02:23:26;;;;;;;19.02;9.57;;;15.90;99.90;;;;;;5005141;28;20030;-64
2021/07/28 02:25:52;;;;;;;11.05;8.88;;;15.90;99.90;;;;;;5003340;28;20030;-64
2021/07/28 02:28:18;;;;;;;15.93;9.75;;;15.90;99.90;;;;;;5005586;28;20128;-63
2021/07/28 02:30:44;;;;;;;20.95;9.45;;;15.90;99.90;;;;;;5002072;28;20053;-64
2021/07/28 02:33:10;;;;;;;13.43;9.80;;;15.90;99.90;;;;;;5007507;28;20065;-64
2021/07/28 02:35:35;;;;;;;24.42;9.95;;;15.90;99.90;;;;;;5009155;28;20080;-64
2021/07/28 02:38:01;;;;;;;14.82;9.68;;;15.90;99.90;;;;;;5004828;28;20022;-62
2021/07/28 02:40:26;;;;;;;12.88;9.68;;;15.90;99.90;;;;;;5005535;28;20041;-64
2021/07/28 02:42:52;;;;;;;12.70;9.13;;;15.90;99.90;;;;;;5004400;28;20026;-64
2021/07/28 02:45:18;;;;;;;13.00;9.50;;;15.90;99.90;;;;;;5010531;28;20034;-63
2021/07/28 02:47:44;;;;;;;16.10;8.77;;;15.90;99.90;;;;;;5006933;28;20084;-63
2021/07/28 02:50:10;;;;;;;13.73;9.90;;;15.90;99.90;;;;;;5010016;28;20476;-63
2021/07/28 02:52:35;;;;;;;13.07;9.73;;;15.90;99.90;;;;;;5008708;28;20026;-62
2021/07/28 02:55:07;;;;;;;14.15;10.25;;;15.90;99.90;;;;;;5001622;28;20045;-62
2021/07/28 02:57:37;;;;;;;13.50;9.90;;;15.90;99.90;;;;;;5009727;28;20089;-63
2021/07/28 03:00:07;;;;;;;17.50;10.10;;;16.00;99.90;;;;;;5005202;28;20033;-64
2021/07/28 03:02:33;;;;;;;14.85;9.55;;;16.00;99.90;;;;;;4991307;28;20717;-63
2021/07/28 03:04:58;;;;;;;15.05;9.35;;;16.00;99.90;;;;;;5011308;28;20033;-63
2021/07/28 03:07:24;;;;;;;18.95;9.52;;;16.00;99.90;;;;;;5008608;28;20018;-63
2021/07/28 03:09:49;;;;;;;16.52;10.23;;;16.00;99.90;;;;;;5011114;28;20120;-64
2021/07/28 03:12:15;;;;;;;23.27;10.45;;;15.90;99.90;;;;;;5010927;28;20109;-61
2021/07/28 03:14:41;;;;;;;12.43;10.20;;;16.00;99.90;;;;;;5009382;28;20164;-63
2021/07/28 03:17:06;;;;;;;14.27;9.18;;;15.90;99.90;;;;;;5008303;28;20538;-63
2021/07/28 03:19:32;;;;;;;14.15;9.60;;;15.90;99.90;;;;;;5010342;28;20030;-64
2021/07/28 03:21:57;;;;;;;15.10;9.68;;;15.90;99.90;;;;;;5007025;28;20495;-62
2021/07/28 03:24:24;;;;;;;14.23;10.35;;;15.90;99.90;;;;;;5011218;28;20527;-60
2021/07/28 03:26:50;;;;;;;17.40;10.63;;;15.90;99.90;;;;;;5006793;28;20431;-63
2021/07/28 03:29:15;;;;;;;13.55;10.30;;;15.90;99.90;;;;;;5007980;28;20293;-63
2021/07/28 03:31:41;;;;;;;15.25;10.38;;;15.80;99.90;;;;;;5008837;28;20033;-64
2021/07/28 03:34:06;;;;;;;17.02;10.32;;;15.80;99.90;;;;;;5010589;28;20045;-63
2021/07/28 03:36:32;;;;;;;12.73;9.55;;;15.80;99.90;;;;;;5003377;28;20034;-62
2021/07/28 03:38:57;;;;;;;15.90;10.70;;;15.80;99.90;;;;;;5005616;28;20028;-63
2021/07/28 03:41:23;;;;;;;20.23;11.68;;;15.80;99.90;;;;;;5009091;28;20038;-64
2021/07/28 03:43:48;;;;;;;17.20;11.32;;;15.90;99.90;;;;;;5010402;28;20045;-64
2021/07/28 03:46:14;;;;;;;17.23;10.60;;;15.90;99.90;;;;;;5009739;28;20041;-63
2021/07/28 03:48:40;;;;;;;12.32;9.65;;;15.90;99.90;;;;;;5010285;28;20029;-64
2021/07/28 03:51:05;;;;;;;14.80;11.00;;;15.90;99.90;;;;;;5009105;28;20045;-64
2021/07/28 03:53:32;;;;;;;18.38;10.55;;;15.90;99.90;;;;;;5009927;28;20044;-64
2021/07/28 03:55:57;;;;;;;18.90;11.52;;;15.90;99.90;;;;;;5010317;28;20426;-64
2021/07/28 03:58:23;;;;;;;18.52;11.07;;;15.90;99.90;;;;;;5005649;28;20057;-64
2021/07/28 04:00:48;;;;;;;16.83;10.43;;;15.90;99.90;;;;;;5009382;28;20037;-63
2021/07/28 04:03:14;;;;;;;14.02;9.80;;;15.90;99.90;;;;;;4993796;28;20046;-62
2021/07/28 04:05:39;;;;;;;12.75;10.77;;;15.90;99.90;;;;;;5009272;28;20859;-63
2021/07/28 04:08:05;;;;;;;14.88;9.88;;;15.90;99.90;;;;;;5007537;28;20033;-63
2021/07/28 04:10:31;;;;;;;16.52;11.07;;;15.90;99.90;;;;;;5008528;28;20377;-63
2021/07/28 04:12:56;;;;;;;18.65;11.13;;;15.90;99.90;;;;;;5008586;28;20075;-64
2021/07/28 04:15:22;;;;;;;17.88;10.88;;;15.90;99.90;;;;;;5007417;28;20022;-64
2021/07/28 04:17:48;;;;;;;13.48;10.75;;;15.90;99.90;;;;;;5001122;28;20480;-67
2021/07/28 04:20:15;;;;;;;17.15;9.93;;;15.90;99.90;;;;;;5009234;28;20034;-62
2021/07/28 04:22:40;;;;;;;12.90;10.25;;;15.90;99.90;;;;;;5006871;28;20018;-62
2021/07/28 04:25:06;;;;;;;13.82;10.60;;;16.00;99.90;;;;;;5010530;28;20034;-65
2021/07/28 04:27:32;;;;;;;13.95;10.43;;;15.90;99.90;;;;;;5008888;28;20480;-64
2021/07/28 04:29:58;;;;;;;15.50;10.98;;;16.00;99.90;;;;;;5009043;28;20083;-66
2021/07/28 04:32:24;;;;;;;13.88;11.00;;;16.00;99.90;;;;;;5009042;28;20041;-65
2021/07/28 04:34:50;;;;;;;14.32;10.07;;;16.00;99.90;;;;;;5009373;28;20030;-65
2021/07/28 04:37:16;;;;;;;14.18;11.05;;;16.00;99.90;;;;;;5007762;28;20092;-63
2021/07/28 04:39:42;;;;;;;20.73;11.15;;;16.10;99.90;;;;;;5007416;28;20083;-65
2021/07/28 04:42:08;;;;;;;14.50;10.68;;;16.10;99.90;;;;;;5008253;28;20112;-63
2021/07/28 04:44:33;;;;;;;20.90;11.52;;;16.20;99.90;;;;;;5008306;28;20388;-64
2021/07/28 04:46:59;;;;;;;16.17;10.27;;;16.30;99.90;;;;;;5007936;28;20034;-64
2021/07/28 04:49:25;;;;;;;17.65;11.65;;;16.30;99.90;;;;;;5006939;28;20096;-64
2021/07/28 04:51:50;;;;;;;13.00;10.30;;;16.40;99.90;;;;;;5008982;28;20039;-64
2021/07/28 04:54:16;;;;;;;16.85;10.00;;;16.40;99.90;;;;;;5008449;28;20499;-64
2021/07/28 04:56:42;;;;;;;12.82;9.70;;;16.40;99.90;;;;;;5008539;28;20057;-65
2021/07/28 04:59:07;;;;;;;20.17;10.70;;;16.40;99.90;;;;;;5007557;28;20017;-64
2021/07/28 05:01:33;;;;;;;16.63;10.73;;;16.40;99.90;;;;;;4991081;28;20106;-64
2021/07/28 05:03:58;;;;;;;14.35;9.68;;;16.40;99.90;;;;;;5008460;28;20425;-65
2021/07/28 05:06:24;;;;;;;13.68;9.50;;;16.40;99.90;;;;;;5006964;28;20033;-64
2021/07/28 05:08:50;;;;;;;19.17;10.43;;;16.40;99.90;;;;;;5005525;28;20034;-65
2021/07/28 05:11:15;;;;;;;14.63;9.70;;;16.30;99.90;;;;;;5006933;28;20554;-64
2021/07/28 05:13:41;;;;;;;14.73;10.13;;;16.30;99.90;;;;;;5009656;28;20478;-66
2021/07/28 05:16:06;;;;;;;14.82;10.20;;;16.30;99.90;;;;;;5004575;28;20113;-64
2021/07/28 05:18:32;;;;;;;14.75;11.30;;;16.30;99.90;;;;;;5007558;28;20097;-64
2021/07/28 05:20:58;;;;;;;14.63;10.27;;;16.30;99.90;;;;;;5007219;28;20021;-63
2021/07/28 05:23:23;;;;;;;18.42;10.52;;;16.30;99.90;;;;;;5005141;28;20022;-64
2021/07/28 05:25:49;;;;;;;19.17;10.25;;;16.30;99.90;;;;;;5007876;28;20029;-63
2021/07/28 05:28:15;;;;;;;13.20;9.90;;;16.30;99.90;;;;;;5007709;28;20470;-62
2021/07/28 05:30:40;;;;;;;14.05;10.55;;;16.30;99.90;;;;;;5007489;28;20076;-64
2021/07/28 05:33:06;;;;;;;13.50;9.68;;;16.30;99.90;;;;;;5005809;28;20049;-65
2021/07/28 05:35:31;;;;;;;17.52;10.55;;;16.30;99.90;;;;;;5008840;28;20046;-64
2021/07/28 05:38:01;;;;;;;15.98;9.70;;;16.30;99.90;;;;;;5005295;28;20081;-64
2021/07/28 05:40:27;;;;;;;13.13;9.38;;;16.30;99.90;;;;;;5024136;28;20042;-64
2021/07/28 05:42:53;;;;;;;16.15;9.00;;;16.30;99.90;;;;;;5001208;28;20034;-64
2021/07/28 05:45:18;;;;;;;10.23;8.43;;;16.40;99.90;;;;;;5008726;28;20511;-64
2021/07/28 05:47:45;;;;;;;13.88;9.23;;;16.50;99.90;;;;;;5007117;28;20036;-63
2021/07/28 05:50:12;;;;;;;16.60;9.20;;;16.50;99.90;;;;;;5005365;28;20767;-64
2021/07/28 05:52:38;;;;;;;12.52;8.02;;;16.60;99.90;;;;;;5005935;28;20451;-64
2021/07/28 05:55:04;;;;;;;13.27;8.82;;;16.60;99.90;;;;;;5009436;28;20022;-64
2021/07/28 05:57:29;;;;;;;13.82;9.05;;;16.70;99.90;;;;;;5007039;28;20026;-63
2021/07/28 05:59:55;;;;;;;13.10;10.30;;;16.70;99.90;;;;;;5007322;28;20097;-63
2021/07/28 06:02:21;;;;;;;14.10;9.20;;;16.70;99.90;;;;;;4992134;28;20511;-62
2021/07/28 06:04:46;;;;;;;13.50;7.55;;;16.80;99.90;;;;;;5007907;28;20590;-64
2021/07/28 06:07:12;;;;;;;17.92;8.73;;;16.80;99.90;;;;;;5005036;28;20535;-63
2021/07/28 06:09:38;;;;;;;13.10;8.45;;;16.80;99.90;;;;;;5005853;28;20125;-63
2021/07/28 06:12:04;;;;;;;11.40;8.15;;;16.80;99.90;;;;;;5006047;28;20034;-63
2021/07/28 06:14:30;;;;;;;11.55;7.47;;;16.80;99.90;;;;;;5007254;28;20049;-64
2021/07/28 06:16:55;;;;;;;13.40;8.40;;;16.80;99.90;;;;;;5009673;28;20056;-64
2021/07/28 06:19:21;;;;;;;14.30;9.18;;;16.80;99.90;;;;;;5012403;28;20050;-63
2021/07/28 06:21:47;;;;;;;11.80;7.68;;;16.70;99.90;;;;;;5011372;28;20065;-63
2021/07/28 06:24:12;;;;;;;16.05;8.25;;;16.70;99.90;;;;;;5011321;28;20029;-64
2021/07/28 06:26:38;;;;;;;14.27;8.73;;;16.80;99.90;;;;;;5002327;28;20034;-63
2021/07/28 06:29:03;;;;;;;12.90;8.13;;;16.90;99.90;;;;;;5010838;28;20539;-63
2021/07/28 06:31:29;;;;;;;10.85;7.40;;;17.00;99.90;;;;;;5009770;28;20060;-65
2021/07/28 06:33:54;;;;;;;11.02;7.90;;;17.10;99.90;;;;;;5008459;28;20045;-64
2021/07/28 06:36:20;;;;;;;14.13;7.95;;;17.30;99.90;;;;;;5012542;28;20502;-64
2021/07/28 06:38:45;;;;;;;13.23;7.55;;;17.40;99.90;;;;;;5010475;28;20503;-64
2021/07/28 06:41:11;;;;;;;9.60;6.75;;;17.70;99.90;;;;;;5010959;28;20372;-64
2021/07/28 06:43:36;;;;;;;13.75;6.25;;;18.00;99.90;;;;;;5008840;28;20543;-64
2021/07/28 06:46:02;;;;;;;9.27;5.93;;;18.30;99.90;;;;;;5012063;28;20033;-64
2021/07/28 06:48:27;;;;;;;14.63;6.65;;;18.30;99.90;;;;;;5010503;28;20037;-63
2021/07/28 06:50:54;;;;;;;12.38;5.90;;;18.30;99.90;;;;;;5007026;28;20033;-64
2021/07/28 06:53:20;;;;;;;9.13;6.60;;;18.50;99.90;;;;;;5008423;28;20391;-63
2021/07/28 06:55:45;;;;;;;7.70;5.57;;;18.60;99.90;;;;;;5011107;28;20030;-64
2021/07/28 06:58:11;;;;;;;13.40;7.38;;;18.70;99.90;;;;;;5008745;28;20037;-62
2021/07/28 07:00:37;;;;;;;12.60;6.50;;;18.80;99.90;;;;;;5008355;28;20042;-64
2021/07/28 07:03:02;;;;;;;11.30;6.18;;;18.80;99.90;;;;;;4990915;28;20050;-64
2021/07/28 07:05:28;;;;;;;12.02;6.43;;;18.80;99.90;;;;;;5008520;28;20036;-64
2021/07/28 07:07:54;;;;;;;11.93;5.90;;;18.80;99.90;;;;;;5010085;28;20048;-62
2021/07/28 07:10:21;;;;;;;12.50;6.03;;;18.70;99.90;;;;;;5010972;28;20418;-65
2021/07/28 07:12:46;;;;;;;9.05;6.10;;;18.70;99.90;;;;;;5010490;28;20038;-66
2021/07/28 07:15:12;;;;;;;9.98;6.28;;;18.80;99.90;;;;;;5010743;28;20048;-64
2021/07/28 07:17:38;;;;;;;12.98;6.00;;;18.80;99.90;;;;;;5000759;28;20022;-63
2021/07/28 07:20:04;;;;;;;7.82;5.53;;;19.00;99.90;;;;;;5011075;28;20034;-65
2021/07/28 07:22:30;;;;;;;8.63;6.30;;;19.30;99.90;;;;;;5008416;28;20025;-64
2021/07/28 07:24:56;;;;;;;10.85;6.80;;;19.30;99.90;;;;;;5008933;28;20491;-64
2021/07/28 07:27:21;;;;;;;10.10;5.10;;;19.30;99.90;;;;;;5009706;28;20566;-62
2021/07/28 07:29:48;;;;;;;6.97;5.97;;;19.40;99.90;;;;;;5005647;28;20030;-64
2021/07/28 07:32:19;;;;;;;11.20;6.03;;;19.60;99.90;;;;;;5011344;28;20030;-62
2021/07/28 07:34:44;;;;;;;9.57;5.63;;;19.60;99.90;;;;;;5008353;28;20096;-62
2021/07/28 07:37:10;;;;;;;7.53;6.45;;;19.60;99.90;;;;;;5010676;28;20491;-63
2021/07/28 07:39:35;;;;;;;11.27;6.10;;;19.60;99.90;;;;;;5005716;28;20030;-64
2021/07/28 07:42:01;;;;;;;9.00;6.35;;;19.60;99.90;;;;;;5009420;28;20045;-62
2021/07/28 07:44:27;;;;;;;12.80;6.25;;;19.50;99.90;;;;;;5008645;28;20041;-62
2021/07/28 07:46:52;;;;;;;7.63;5.85;;;19.60;99.90;;;;;;5008681;28;20507;-62
2021/07/28 07:49:18;;;;;;;11.82;5.90;;;19.70;99.90;;;;;;5009162;28;20113;-63
2021/07/28 07:51:43;;;;;;;8.65;5.75;;;19.60;99.90;;;;;;5004632;28;20041;-63
2021/07/28 07:54:09;;;;;;;11.45;6.28;;;19.60;99.90;;;;;;5009812;28;20068;-64
2021/07/28 07:56:34;;;;;;;8.85;5.70;;;19.60;99.90;;;;;;5009281;28;20049;-64
2021/07/28 07:59:00;;;;;;;10.57;6.15;;;19.50;99.90;;;;;;5009371;28;20034;-64
2021/07/28 08:01:25;;;;;;;11.27;6.40;;;19.60;99.90;;;;;;5008041;28;20033;-64
2021/07/28 08:03:51;;;;;;;11.93;5.93;;;19.60;99.90;;;;;;4992504;28;20038;-64
2021/07/28 08:06:17;;;;;;;13.90;6.68;;;19.80;99.90;;;;;;5009397;28;20038;-62
2021/07/28 08:08:42;;;;;;;9.25;5.85;;;20.10;99.90;;;;;;5004697;28;20022;-64
2021/07/28 08:11:12;;;;;;;7.78;5.70;;;20.50;99.90;;;;;;5010031;28;20097;-65
2021/07/28 08:13:39;;;;;;;8.93;5.45;;;20.90;99.90;;;;;;5006174;28;20026;-64
2021/07/28 08:16:18;;;;;;;11.23;5.47;;;21.10;99.90;;;;;;5008646;28;20485;-64
2021/07/28 08:18:45;;;;;;;15.93;5.90;;;21.30;99.90;;;;;;5007826;28;20025;-63
2021/07/28 08:21:11;;;;;;;9.48;5.05;;;21.40;99.90;;;;;;5010209;28;20028;-64
2021/07/28 08:23:43;;;;;;;15.15;5.30;;;21.30;99.90;;;;;;5007842;28;20495;-64
2021/07/28 08:26:08;;;;;;;11.75;5.22;;;21.40;99.90;;;;;;5003495;28;20091;-64
2021/07/28 08:28:34;;;;;;;7.32;5.25;;;21.40;99.90;;;;;;5008500;28;20030;-63
2021/07/28 08:31:00;;;;;;;6.10;4.90;;;21.40;99.90;;;;;;5009643;28;20048;-64
2021/07/28 08:33:27;;;;;;;8.95;5.32;;;21.30;99.90;;;;;;5005923;28;20533;-63
2021/07/28 08:35:57;;;;;;;6.18;4.72;;;21.40;99.90;;;;;;5010479;28;20080;-64
2021/07/28 08:38:24;;;;;;;8.70;5.05;;;22.00;99.90;;;;;;5006260;28;20026;-64
2021/07/28 08:40:55;;;;;;;9.73;5.05;;;22.20;99.90;;;;;;5008737;28;20384;-63
2021/07/28 08:43:24;;;;;;;7.88;4.57;;;22.70;99.90;;;;;;5023320;28;20029;-64
2021/07/28 08:45:51;;;;;;;12.02;4.90;;;23.80;99.90;;;;;;5006230;28;20061;-62
2021/07/28 08:48:17;;;;;;;6.18;4.57;;;25.00;99.90;;;;;;5005764;28;20042;-64
2021/07/28 08:50:46;;;;;;;6.47;4.22;;;25.10;99.90;;;;;;5004153;28;20030;-65
2021/07/28 08:53:11;;;;;;;11.23;4.35;;;25.10;99.90;;;;;;5001751;28;20053;-63
2021/07/28 08:55:38;;;;;;;9.80;4.68;;;25.20;99.90;;;;;;5001728;28;20108;-65
2021/07/28 08:58:05;;;;;;;6.15;4.07;;;25.40;99.90;;;;;;4997673;28;20436;-64
2021/07/28 09:00:41;;;;;;;12.00;4.57;;;25.70;99.10;;;;;;5006088;28;20495;-65
2021/07/28 09:03:06;;;;;;;11.32;4.95;;;25.50;99.10;;;;;;4985682;28;20344;-64
2021/07/28 09:05:39;;;;;;;10.02;4.20;;;25.60;99.00;;;;;;5004119;28;20120;-65
2021/07/28 09:08:07;;;;;;;8.25;3.90;;;25.60;99.00;;;;;;5005186;28;20052;-65
2021/07/28 09:10:32;;;;;;;8.82;4.78;;;25.40;99.50;;;;;;5008267;28;20109;-65
2021/07/28 09:12:58;;;;;;;9.40;4.70;;;24.80;99.70;;;;;;5001974;28;20113;-64
2021/07/28 09:15:36;;;;;;;6.43;4.10;;;24.80;99.90;;;;;;5006149;28;20381;-64
2021/07/28 09:18:34;;;;;;;13.02;5.50;;;24.00;99.90;;;;;;4999427;28;20110;-64
2021/07/28 09:21:02;;;;;;;10.48;5.35;;;23.40;99.90;;;;;;4991526;28;20037;-62
2021/07/28 09:23:37;;;;;;;18.17;5.35;;;22.80;99.90;;;;;;4997987;28;20415;-64
2021/07/28 09:26:05;;;;;;;9.00;4.88;;;22.60;99.90;;;;;;4997142;28;20022;-64
2021/07/28 09:28:32;;;;;;;8.00;5.20;;;22.10;99.90;;;;;;4991237;28;20030;-64
2021/07/28 09:30:58;;;;;;;10.07;5.28;;;21.70;99.90;;;;;;4999419;28;20052;-64
2021/07/28 09:33:24;;;;;;;11.27;6.15;;;21.60;99.90;;;;;;4999236;28;20488;-63
2021/07/28 09:35:49;;;;;;;9.80;5.22;;;21.30;99.90;;;;;;5009043;28;20042;-64
2021/07/28 09:38:30;;;;;;;6.80;5.38;;;21.30;99.90;;;;;;5005855;28;20058;-64
2021/07/28 09:41:19;;;;;;;9.45;5.65;;;21.10;99.90;;;;;;4998511;28;20038;-64
2021/07/28 09:43:50;;;;;;;5.97;4.00;;;21.00;99.90;;;;;;4996091;28;20026;-64
2021/07/28 09:46:36;;;;;;;7.57;5.75;;;20.90;99.90;;;;;;4999050;28;20245;-64
2021/07/28 09:49:09;;;;;;;7.03;5.05;;;20.80;99.90;;;;;;4995517;28;20018;-64
2021/07/28 09:51:40;;;;;;;12.30;4.95;;;20.90;99.90;;;;;;5003294;28;20036;-63
2021/07/28 09:54:08;;;;;;;8.02;4.90;;;21.00;99.90;;;;;;5008966;28;20034;-64
2021/07/28 09:56:45;;;;;;;10.18;5.20;;;21.20;99.90;;;;;;5008575;28;20064;-64
2021/07/28 09:59:11;;;;;;;6.90;3.97;;;21.40;99.90;;;;;;5012974;28;20080;-64
2021/07/28 10:01:37;;;;;;;8.27;4.18;;;21.70;99.90;;;;;;5008645;28;20026;-64
2021/07/28 10:04:07;;;;;;;6.60;3.47;;;22.00;99.90;;;;;;4996156;28;20125;-64
2021/07/28 10:06:39;;;;;;;3.33;3.03;;;22.50;99.90;;;;;;5007847;28;20045;-66
2021/07/28 10:09:13;;;;;;;7.38;3.45;;;22.80;99.90;;;;;;5012913;28;20026;-65
2021/07/28 10:11:44;;;;;;;6.40;3.40;;;22.80;99.90;;;;;;5007877;28;20076;-64
2021/07/28 10:14:10;;;;;;;7.13;3.58;;;22.60;99.90;;;;;;5010075;28;20518;-64
2021/07/28 10:16:37;;;;;;;5.43;3.55;;;22.70;99.90;;;;;;5010417;28;20033;-65
2021/07/28 10:19:04;;;;;;;6.10;3.15;;;22.80;99.90;;;;;;5010919;28;20022;-64
2021/07/28 10:21:34;;;;;;;5.82;2.97;;;22.90;99.90;;;;;;5006976;28;20026;-64
2021/07/28 10:24:02;;;;;;;5.68;2.80;;;23.10;99.90;;;;;;5005029;28;20034;-65
2021/07/28 10:26:29;;;;;;;6.65;2.60;;;23.20;99.90;;;;;;5004884;28;20041;-65
2021/07/28 10:28:56;;;;;;;3.10;2.10;;;22.80;99.90;;;;;;5006975;28;20061;-65
2021/07/28 10:31:24;;;;;;;5.03;2.50;;;23.10;99.90;;;;;;5006017;28;20108;-65
2021/07/28 10:33:54;;;;;;;5.03;2.60;;;23.20;99.90;;;;;;5001297;28;20037;-65
2021/07/28 10:36:41;;;;;;;4.43;2.35;;;23.60;99.90;;;;;;5004897;28;20112;-64
2021/07/28 10:39:07;;;;;;;3.42;2.30;;;24.30;99.90;;;;;;5006559;28;20037;-64
2021/07/28 10:41:35;;;;;;;3.40;2.13;;;24.20;99.90;;;;;;5007398;28;20095;-63
2021/07/28 10:44:13;;;;;;;5.00;2.00;;;24.10;99.90;;;;;;4996787;28;20022;-63
2021/07/28 10:46:54;;;;;;;3.08;2.15;;;24.00;99.90;;;;;;4999069;28;20042;-63
2021/07/28 10:49:35;;;;;;;3.65;2.08;;;23.90;99.90;;;;;;4997455;28;20033;-64
2021/07/28 10:52:02;;;;;;;6.70;3.58;;;23.60;99.90;;;;;;4995013;28;20041;-64
2021/07/28 10:54:57;;;;;;;4.82;2.25;;;23.50;99.90;;;;;;4998875;28;20033;-61
2021/07/28 10:57:34;;;;;;;4.55;2.40;;;23.20;99.90;;;;;;4985757;28;20068;-63
2021/07/28 11:00:07;;;;;;;3.83;2.30;;;22.90;99.90;;;;;;4998444;28;20022;-63
2021/07/28 11:02:59;;;;;;;6.00;3.08;;;22.70;99.90;;;;;;5007091;28;20034;-64
2021/07/28 11:05:29;;;;;;;5.65;2.30;;;22.60;99.90;;;;;;4996951;28;20049;-64
2021/07/28 11:08:07;;;;;;;7.55;2.35;;;22.90;99.90;;;;;;4994531;28;20068;-63
2021/07/28 11:10:41;;;;;;;5.95;2.80;;;23.30;99.90;;;;;;5000217;28;20033;-63
2021/07/28 11:13:12;;;;;;;4.80;2.42;;;23.40;99.90;;;;;;4997860;28;20035;-63
2021/07/28 11:15:40;;;;;;;6.20;2.92;;;23.70;99.90;;;;;;4994841;28;20038;-63
2021/07/28 11:18:06;;;;;;;5.03;2.55;;;24.00;99.90;;;;;;4994795;28;20024;-64
2021/07/28 11:20:37;;;;;;;3.45;2.10;;;24.10;99.30;;;;;;4997079;28;20033;-64
2021/07/28 11:23:20;;;;;;;4.28;2.22;;;24.10;98.50;;;;;;4999170;28;20069;-63
2021/07/28 11:25:46;;;;;;;;;;;23.80;97.40;;;;;;4999207;28;20104;-64
2021/07/28 11:28:12;;;;;;;4.07;2.60;;;23.40;97.70;;;;;;4996163;28;20379;-64
2021/07/28 11:30:38;;;;;;;4.40;2.35;;;23.10;99.20;;;;;;4995382;28;20089;-63
2021/07/28 11:33:13;;;;;;;3.35;2.53;;;22.80;99.20;;;;;;4996132;28;20026;-63
2021/07/28 11:35:43;;;;;;;5.00;2.45;;;22.70;99.30;;;;;;4993897;28;20045;-64
2021/07/28 11:38:39;;;;;;;3.67;2.53;;;22.40;99.30;;;;;;4994747;28;20018;-63
2021/07/28 11:41:09;;;;;;;4.78;2.10;;;22.10;98.60;;;;;;4995772;28;20114;-62
2021/07/28 11:43:38;;;;;;;5.05;2.30;;;22.10;99.10;;;;;;5003853;28;20054;-62
2021/07/28 11:46:10;;;;;;;3.88;2.22;;;22.10;99.90;;;;;;4998698;28;20049;-64
2021/07/28 11:48:37;;;;;;;5.43;2.70;;;22.30;99.80;;;;;;4994372;28;20022;-64
2021/07/28 11:51:05;;;;;;;6.07;2.50;;;22.50;98.50;;;;;;4995477;28;20038;-64
2021/07/28 11:53:32;;;;;;;4.10;2.40;;;22.60;98.20;;;;;;4993306;28;20542;-64
2021/07/28 11:56:11;;;;;;;3.70;2.20;;;22.80;99.50;;;;;;5002367;28;20076;-62
2021/07/28 11:58:44;;;;;;;3.70;2.13;;;22.80;98.50;;;;;;5005485;28;20033;-64
2021/07/28 12:01:29;;;;;;;5.93;2.45;;;23.00;99.40;;;;;;5008468;28;20030;-63
2021/07/28 12:04:07;;;;;;;9.25;2.75;;;23.10;98.70;;;;;;4992906;28;20037;-64
2021/07/28 12:06:35;;;;;;;4.30;2.45;;;23.30;97.60;;;;;;5010384;28;20211;-64
2021/07/28 12:09:12;;;;;;;3.30;2.17;;;23.30;97.50;;;;;;5009059;28;20048;-63
2021/07/28 12:11:54;;;;;;;3.30;2.13;;;23.70;97.70;;;;;;5007067;28;20033;-64
2021/07/28 12:14:35;;;;;;;4.95;2.50;;;23.90;97.10;;;;;;5009650;28;20057;-64
2021/07/28 12:17:16;;;;;;;5.35;2.38;;;24.40;97.70;;;;;;5004192;28;20529;-63
2021/07/28 12:20:00;;;;;;;3.22;2.05;;;24.80;96.90;;;;;;4998881;28;20037;-62
2021/07/28 12:22:34;;;;;;;3.63;2.55;;;25.00;96.00;;;;;;5007801;28;20245;-64
2021/07/28 12:25:17;;;;;;;3.10;2.08;;;24.90;95.50;;;;;;5009514;28;20030;-63
2021/07/28 12:27:57;;;;;;;4.47;2.15;;;24.80;94.80;;;;;;5000581;28;20030;-63
2021/07/28 12:30:37;;;;;;;6.18;1.95;;;24.50;95.50;;;;;;5017070;28;20034;-63
2021/07/28 12:33:12;;;;;;;4.72;2.20;;;24.30;96.60;;;;;;4994521;28;20495;-64
2021/07/28 12:35:45;;;;;;;3.65;2.22;;;23.90;95.40;;;;;;4996904;28;20030;-62
2021/07/28 12:38:14;;;;;;;4.07;1.95;;;23.70;96.30;;;;;;4997361;28;20069;-63
2021/07/28 12:40:42;;;;;;;5.15;2.22;;;23.60;96.60;;;;;;4997318;28;20038;-64
2021/07/28 12:43:09;;;;;;;4.65;1.98;;;23.60;97.70;;;;;;5002335;28;20057;-65
2021/07/28 12:45:34;;;;;;;4.60;2.30;;;23.90;97.00;;;;;;5003599;28;20802;-63